sensor_id;sensor_type;location;lat;lon;timestamp;pressure;altitude;pressure_sealevel;temperature;humidity
64675;BME280;51090;51.512;11.332;2023-02-23T00:00:28;99006.06;;;9.50;nan
64675;BME280;51090;51.512;11.332;2023-02-23T00:02:58;99008.66;;;9.43;nan
64675;BME280;51090;51.512;11.332;2023-02-23T00:05:28;99009.25;;;9.45;nan
64675;BME280;51090;51.512;11.332;2023-02-23T00:07:55;99011.47;;;9.42;nan
64675;BME280;51090;51.512;11.332;2023-02-23T00:10:22;99006.81;;;9.44;nan
64675;BME280;51090;51.512;11.332;2023-02-23T00:12:56;99005.94;;;9.36;nan
64675;BME280;51090;51.512;11.332;2023-02-23T00:15:23;98995.47;;;9.28;nan
64675;BME280;51090;51.512;11.332;2023-02-23T00:17:55;99006.19;;;9.42;nan
64675;BME280;51090;51.512;11.332;2023-02-23T00:20:23;99005.00;;;9.44;nan
64675;BME280;51090;51.512;11.332;2023-02-23T00:22:54;98960.59;;;9.25;nan
64675;BME280;51090;51.512;11.332;2023-02-23T00:25:21;98993.13;;;9.40;nan
64675;BME280;51090;51.512;11.332;2023-02-23T00:27:47;98991.69;;;9.37;nan
64675;BME280;51090;51.512;11.332;2023-02-23T00:30:16;98983.91;;;9.51;nan
64675;BME280;51090;51.512;11.332;2023-02-23T00:32:43;98992.09;;;9.56;nan
64675;BME280;51090;51.512;11.332;2023-02-23T00:35:09;98986.34;;;9.52;nan
64675;BME280;51090;51.512;11.332;2023-02-23T00:37:47;98990.53;;;9.68;nan
64675;BME280;51090;51.512;11.332;2023-02-23T00:40:17;98987.28;;;9.66;nan
64675;BME280;51090;51.512;11.332;2023-02-23T00:42:46;98994.16;;;9.60;nan
64675;BME280;51090;51.512;11.332;2023-02-23T00:45:13;98984.97;;;9.56;nan
64675;BME280;51090;51.512;11.332;2023-02-23T00:47:41;98987.84;;;9.62;nan
64675;BME280;51090;51.512;11.332;2023-02-23T00:50:11;98975.00;;;9.58;nan
64675;BME280;51090;51.512;11.332;2023-02-23T00:52:38;98993.41;;;9.67;nan
64675;BME280;51090;51.512;11.332;2023-02-23T00:55:07;98991.63;;;9.74;nan
64675;BME280;51090;51.512;11.332;2023-02-23T00:57:34;98984.66;;;9.66;nan
64675;BME280;51090;51.512;11.332;2023-02-23T01:00:00;98998.31;;;9.70;nan
64675;BME280;51090;51.512;11.332;2023-02-23T01:02:27;98986.91;;;9.69;nan
64675;BME280;51090;51.512;11.332;2023-02-23T01:04:55;98991.63;;;9.74;nan
64675;BME280;51090;51.512;11.332;2023-02-23T01:07:21;98989.72;;;9.68;nan
64675;BME280;51090;51.512;11.332;2023-02-23T01:09:50;98999.19;;;9.77;nan
64675;BME280;51090;51.512;11.332;2023-02-23T01:12:16;98989.47;;;9.63;nan
64675;BME280;51090;51.512;11.332;2023-02-23T01:14:42;98989.06;;;9.59;nan
64675;BME280;51090;51.512;11.332;2023-02-23T01:17:07;98988.25;;;9.58;nan
64675;BME280;51090;51.512;11.332;2023-02-23T01:19:33;98994.03;;;9.69;nan
64675;BME280;51090;51.512;11.332;2023-02-23T01:21:59;98999.75;;;9.72;nan
64675;BME280;51090;51.512;11.332;2023-02-23T01:24:27;98999.19;;;9.77;nan
64675;BME280;51090;51.512;11.332;2023-02-23T01:26:53;98993.03;;;9.70;nan
64675;BME280;51090;51.512;11.332;2023-02-23T01:29:19;98993.16;;;9.62;nan
64675;BME280;51090;51.512;11.332;2023-02-23T01:31:47;98998.31;;;9.70;nan
64675;BME280;51090;51.512;11.332;2023-02-23T01:34:16;98982.31;;;9.56;nan
64675;BME280;51090;51.512;11.332;2023-02-23T01:36:44;98985.59;;;9.58;nan
64675;BME280;51090;51.512;11.332;2023-02-23T01:39:17;98989.69;;;9.61;nan
64675;BME280;51090;51.512;11.332;2023-02-23T01:41:44;98992.91;;;9.56;nan
64675;BME280;51090;51.512;11.332;2023-02-23T01:46:41;98987.75;;;9.48;nan
64675;BME280;51090;51.512;11.332;2023-02-23T01:49:28;98980.34;;;9.44;nan
64675;BME280;51090;51.512;11.332;2023-02-23T01:52:04;98989.03;;;9.37;nan
64675;BME280;51090;51.512;11.332;2023-02-23T01:54:39;98990.22;;;9.35;nan
64675;BME280;51090;51.512;11.332;2023-02-23T01:57:07;98978.25;;;9.18;nan
64675;BME280;51090;51.512;11.332;2023-02-23T01:59:42;98983.44;;;9.26;nan
64675;BME280;51090;51.512;11.332;2023-02-23T02:02:09;98980.66;;;9.12;nan
64675;BME280;51090;51.512;11.332;2023-02-23T02:04:38;98976.53;;;9.10;nan
64675;BME280;51090;51.512;11.332;2023-02-23T02:07:14;98979.38;;;9.08;nan
64675;BME280;51090;51.512;11.332;2023-02-23T02:09:41;98987.16;;;8.95;nan
64675;BME280;51090;51.512;11.332;2023-02-23T02:12:27;98966.75;;;8.74;nan
64675;BME280;51090;51.512;11.332;2023-02-23T02:14:54;98989.53;;;8.75;nan
64675;BME280;51090;51.512;11.332;2023-02-23T02:21:07;98979.97;;;8.74;nan
64675;BME280;51090;51.512;11.332;2023-02-23T02:32:50;98981.59;;;8.75;nan
64675;BME280;51090;51.512;11.332;2023-02-23T02:41:45;98972.44;;;8.71;nan
64675;BME280;51090;51.512;11.332;2023-02-23T02:51:25;98964.94;;;8.75;nan
64675;BME280;51090;51.512;11.332;2023-02-23T02:54:03;98973.56;;;8.83;nan
64675;BME280;51090;51.512;11.332;2023-02-23T02:56:34;98954.34;;;8.75;nan
64675;BME280;51090;51.512;11.332;2023-02-23T02:59:17;98962.16;;;8.98;nan
64675;BME280;51090;51.512;11.332;2023-02-23T03:02:08;98972.81;;;9.04;nan
64675;BME280;51090;51.512;11.332;2023-02-23T03:04:57;98969.44;;;8.96;nan
64675;BME280;51090;51.512;11.332;2023-02-23T03:11:17;98959.22;;;9.07;nan
64675;BME280;51090;51.512;11.332;2023-02-23T03:14:27;98969.94;;;9.21;nan
64675;BME280;51090;51.512;11.332;2023-02-23T03:26:46;98957.66;;;9.34;nan
64675;BME280;51090;51.512;11.332;2023-02-23T03:29:57;98952.38;;;9.34;nan
64675;BME280;51090;51.512;11.332;2023-02-23T03:32:51;98955.22;;;9.33;nan
64675;BME280;51090;51.512;11.332;2023-02-23T03:38:53;98966.50;;;9.42;nan
64675;BME280;51090;51.512;11.332;2023-02-23T03:41:40;98964.53;;;9.29;nan
64675;BME280;51090;51.512;11.332;2023-02-23T03:44:31;98956.41;;;9.30;nan
64675;BME280;51090;51.512;11.332;2023-02-23T03:47:17;98934.41;;;9.08;nan
64675;BME280;51090;51.512;11.332;2023-02-23T03:50:07;98962.94;;;9.34;nan
64675;BME280;51090;51.512;11.332;2023-02-23T03:52:56;98958.13;;;9.38;nan
64675;BME280;51090;51.512;11.332;2023-02-23T03:55:49;98954.44;;;9.39;nan
64675;BME280;51090;51.512;11.332;2023-02-23T03:58:45;98959.81;;;9.46;nan
64675;BME280;51090;51.512;11.332;2023-02-23T04:01:32;98968.69;;;9.38;nan
64675;BME280;51090;51.512;11.332;2023-02-23T04:04:17;98955.22;;;9.33;nan
64675;BME280;51090;51.512;11.332;2023-02-23T04:07:03;98962.81;;;9.21;nan
64675;BME280;51090;51.512;11.332;2023-02-23T04:09:50;98973.78;;;9.18;nan
64675;BME280;51090;51.512;11.332;2023-02-23T04:16:00;98977.63;;;9.37;nan
64675;BME280;51090;51.512;11.332;2023-02-23T04:18:31;98976.56;;;9.31;nan
64675;BME280;51090;51.512;11.332;2023-02-23T04:20:59;98969.00;;;9.28;nan
64675;BME280;51090;51.512;11.332;2023-02-23T04:23:26;98976.00;;;9.36;nan
64675;BME280;51090;51.512;11.332;2023-02-23T04:25:53;98969.06;;;9.35;nan
64675;BME280;51090;51.512;11.332;2023-02-23T04:28:21;98943.28;;;9.22;nan
64675;BME280;51090;51.512;11.332;2023-02-23T04:30:47;98964.16;;;9.32;nan
64675;BME280;51090;51.512;11.332;2023-02-23T04:33:13;98964.34;;;9.30;nan
64675;BME280;51090;51.512;11.332;2023-02-23T04:35:39;98978.00;;;9.34;nan
64675;BME280;51090;51.512;11.332;2023-02-23T04:38:05;98966.91;;;9.24;nan
64675;BME280;51090;51.512;11.332;2023-02-23T04:40:31;98979.75;;;9.27;nan
64675;BME280;51090;51.512;11.332;2023-02-23T04:42:57;98974.47;;;9.27;nan
64675;BME280;51090;51.512;11.332;2023-02-23T04:45:23;98969.00;;;9.28;nan
64675;BME280;51090;51.512;11.332;2023-02-23T04:47:50;98971.81;;;9.27;nan
64675;BME280;51090;51.512;11.332;2023-02-23T04:50:17;98970.19;;;9.26;nan
64675;BME280;51090;51.512;11.332;2023-02-23T04:52:43;98979.97;;;9.47;nan
64675;BME280;51090;51.512;11.332;2023-02-23T04:55:17;98984.41;;;9.61;nan
64675;BME280;51090;51.512;11.332;2023-02-23T04:57:43;98981.59;;;9.48;nan
64675;BME280;51090;51.512;11.332;2023-02-23T05:00:10;98974.28;;;9.50;nan
64675;BME280;51090;51.512;11.332;2023-02-23T05:02:37;98979.41;;;9.51;nan
64675;BME280;51090;51.512;11.332;2023-02-23T05:05:03;98983.94;;;9.57;nan
64675;BME280;51090;51.512;11.332;2023-02-23T05:07:28;98986.97;;;9.54;nan
64675;BME280;51090;51.512;11.332;2023-02-23T05:09:54;98974.69;;;9.47;nan
64675;BME280;51090;51.512;11.332;2023-02-23T05:12:20;98974.84;;;9.45;nan
64675;BME280;51090;51.512;11.332;2023-02-23T05:14:46;98981.59;;;9.48;nan
64675;BME280;51090;51.512;11.332;2023-02-23T05:17:14;98976.38;;;9.33;nan
64675;BME280;51090;51.512;11.332;2023-02-23T05:19:40;98974.28;;;9.28;nan
64675;BME280;51090;51.512;11.332;2023-02-23T05:22:06;98953.38;;;9.12;nan
64675;BME280;51090;51.512;11.332;2023-02-23T05:24:32;98953.28;;;9.05;nan
64675;BME280;51090;51.512;11.332;2023-02-23T05:26:57;98976.84;;;9.22;nan
64675;BME280;51090;51.512;11.332;2023-02-23T05:29:24;98978.13;;;9.26;nan
64675;BME280;51090;51.512;11.332;2023-02-23T05:31:49;98982.78;;;9.24;nan
64675;BME280;51090;51.512;11.332;2023-02-23T05:34:15;98982.78;;;9.24;nan
64675;BME280;51090;51.512;11.332;2023-02-23T05:36:41;98982.41;;;9.27;nan
64675;BME280;51090;51.512;11.332;2023-02-23T05:39:07;98984.25;;;9.26;nan
64675;BME280;51090;51.512;11.332;2023-02-23T05:41:33;98988.50;;;9.27;nan
64675;BME280;51090;51.512;11.332;2023-02-23T05:43:59;98951.09;;;9.09;nan
64675;BME280;51090;51.512;11.332;2023-02-23T05:46:26;98982.53;;;9.40;nan
64675;BME280;51090;51.512;11.332;2023-02-23T05:48:58;98985.44;;;9.45;nan
64675;BME280;51090;51.512;11.332;2023-02-23T05:51:27;98984.94;;;9.35;nan
64675;BME280;51090;51.512;11.332;2023-02-23T05:53:53;98991.06;;;9.35;nan
64675;BME280;51090;51.512;11.332;2023-02-23T05:56:19;98989.22;;;9.36;nan
64675;BME280;51090;51.512;11.332;2023-02-23T05:58:54;98988.09;;;9.45;nan
64675;BME280;51090;51.512;11.332;2023-02-23T06:01:22;98980.22;;;9.30;nan
64675;BME280;51090;51.512;11.332;2023-02-23T06:03:49;98978.00;;;9.34;nan
64675;BME280;51090;51.512;11.332;2023-02-23T06:06:15;98988.69;;;9.41;nan
64675;BME280;51090;51.512;11.332;2023-02-23T06:08:41;98958.34;;;9.22;nan
64675;BME280;51090;51.512;11.332;2023-02-23T06:11:08;98995.22;;;9.45;nan
64675;BME280;51090;51.512;11.332;2023-02-23T06:13:34;98999.69;;;9.44;nan
64675;BME280;51090;51.512;11.332;2023-02-23T06:16:00;98994.22;;;9.46;nan
64675;BME280;51090;51.512;11.332;2023-02-23T06:18:27;98990.38;;;9.48;nan
64675;BME280;51090;51.512;11.332;2023-02-23T06:20:53;99003.41;;;9.50;nan
64675;BME280;51090;51.512;11.332;2023-02-23T06:23:19;99004.22;;;9.50;nan
64675;BME280;51090;51.512;11.332;2023-02-23T06:25:46;99008.16;;;9.54;nan
64675;BME280;51090;51.512;11.332;2023-02-23T06:28:12;99013.44;;;9.54;nan
64675;BME280;51090;51.512;11.332;2023-02-23T06:30:38;98996.03;;;9.45;nan
64675;BME280;51090;51.512;11.332;2023-02-23T06:33:05;99029.91;;;9.71;nan
64675;BME280;51090;51.512;11.332;2023-02-23T06:35:32;99021.31;;;9.69;nan
64675;BME280;51090;51.512;11.332;2023-02-23T06:38:00;99032.47;;;9.86;nan
64675;BME280;51090;51.512;11.332;2023-02-23T06:40:26;99030.47;;;9.67;nan
64675;BME280;51090;51.512;11.332;2023-02-23T06:42:52;99036.03;;;9.72;nan
64675;BME280;51090;51.512;11.332;2023-02-23T06:45:18;99033.00;;;9.75;nan
64675;BME280;51090;51.512;11.332;2023-02-23T06:47:44;99038.97;;;9.84;nan
64675;BME280;51090;51.512;11.332;2023-02-23T06:50:11;99042.06;;;9.87;nan
64675;BME280;51090;51.512;11.332;2023-02-23T06:52:37;99031.00;;;9.84;nan
64675;BME280;51090;51.512;11.332;2023-02-23T06:55:03;99046.03;;;9.98;nan
64675;BME280;51090;51.512;11.332;2023-02-23T06:57:29;99042.34;;;9.99;nan
64675;BME280;51090;51.512;11.332;2023-02-23T06:59:55;99013.13;;;9.86;nan
64675;BME280;51090;51.512;11.332;2023-02-23T07:02:21;99042.03;;;10.09;nan
64675;BME280;51090;51.512;11.332;2023-02-23T07:04:47;99047.78;;;10.12;nan
64675;BME280;51090;51.512;11.332;2023-02-23T07:07:13;99039.25;;;10.17;nan
64675;BME280;51090;51.512;11.332;2023-02-23T07:09:40;99041.56;;;10.27;nan
64675;BME280;51090;51.512;11.332;2023-02-23T07:12:09;99045.13;;;10.34;nan
64675;BME280;51090;51.512;11.332;2023-02-23T07:14:35;99045.31;;;10.32;nan
64675;BME280;51090;51.512;11.332;2023-02-23T07:17:03;99047.28;;;10.52;nan
64675;BME280;51090;51.512;11.332;2023-02-23T07:19:29;99042.97;;;10.51;nan
64675;BME280;51090;51.512;11.332;2023-02-23T07:21:55;99044.66;;;10.52;nan
64675;BME280;51090;51.512;11.332;2023-02-23T07:24:21;99048.00;;;10.67;nan
64675;BME280;51090;51.512;11.332;2023-02-23T07:26:47;99046.00;;;10.76;nan
64675;BME280;51090;51.512;11.332;2023-02-23T07:29:14;99045.25;;;10.88;nan
64675;BME280;51090;51.512;11.332;2023-02-23T07:31:40;99046.94;;;10.96;nan
64675;BME280;51090;51.512;11.332;2023-02-23T07:34:07;99053.91;;;11.04;nan
64675;BME280;51090;51.512;11.332;2023-02-23T07:36:34;99057.19;;;11.06;nan
64675;BME280;51090;51.512;11.332;2023-02-23T07:39:00;99054.13;;;11.09;nan
64675;BME280;51090;51.512;11.332;2023-02-23T07:41:26;99053.13;;;11.17;nan
64675;BME280;51090;51.512;11.332;2023-02-23T07:43:51;99057.88;;;11.21;nan
64675;BME280;51090;51.512;11.332;2023-02-23T07:46:17;99053.59;;;11.27;nan
64675;BME280;51090;51.512;11.332;2023-02-23T07:48:43;99052.63;;;11.48;nan
64675;BME280;51090;51.512;11.332;2023-02-23T07:51:14;99060.88;;;11.66;nan
64675;BME280;51090;51.512;11.332;2023-02-23T07:53:41;99052.09;;;11.72;nan
64675;BME280;51090;51.512;11.332;2023-02-23T07:56:09;99067.25;;;11.92;nan
64675;BME280;51090;51.512;11.332;2023-02-23T07:58:36;99063.81;;;11.98;nan
64675;BME280;51090;51.512;11.332;2023-02-23T08:01:02;99063.19;;;11.96;nan
64675;BME280;51090;51.512;11.332;2023-02-23T08:03:28;99063.16;;;11.89;nan
64675;BME280;51090;51.512;11.332;2023-02-23T08:05:54;99069.72;;;11.87;nan
64675;BME280;51090;51.512;11.332;2023-02-23T08:08:20;99063.97;;;11.83;nan
64675;BME280;51090;51.512;11.332;2023-02-23T08:10:46;99064.19;;;11.88;nan
64675;BME280;51090;51.512;11.332;2023-02-23T08:13:14;99067.47;;;11.90;nan
64675;BME280;51090;51.512;11.332;2023-02-23T08:15:40;99069.72;;;11.87;nan
64675;BME280;51090;51.512;11.332;2023-02-23T08:18:06;99070.94;;;11.91;nan
64675;BME280;51090;51.512;11.332;2023-02-23T08:20:32;99073.41;;;11.92;nan
64675;BME280;51090;51.512;11.332;2023-02-23T08:22:57;99069.72;;;11.93;nan
64675;BME280;51090;51.512;11.332;2023-02-23T08:25:24;99078.53;;;12.07;nan
64675;BME280;51090;51.512;11.332;2023-02-23T08:27:52;99077.09;;;12.11;nan
64675;BME280;51090;51.512;11.332;2023-02-23T08:30:20;99074.63;;;12.10;nan
64675;BME280;51090;51.512;11.332;2023-02-23T08:32:47;99075.06;;;12.07;nan
64675;BME280;51090;51.512;11.332;2023-02-23T08:35:13;99079.75;;;12.11;nan
64675;BME280;51090;51.512;11.332;2023-02-23T08:37:39;99070.16;;;12.10;nan
64675;BME280;51090;51.512;11.332;2023-02-23T08:40:07;99080.19;;;12.22;nan
64675;BME280;51090;51.512;11.332;2023-02-23T08:42:34;99085.09;;;12.18;nan
64675;BME280;51090;51.512;11.332;2023-02-23T08:44:59;99083.25;;;12.18;nan
64675;BME280;51090;51.512;11.332;2023-02-23T08:47:26;99076.28;;;12.24;nan
64675;BME280;51090;51.512;11.332;2023-02-23T08:49:52;99081.19;;;12.27;nan
64675;BME280;51090;51.512;11.332;2023-02-23T08:52:21;99077.50;;;12.35;nan
64675;BME280;51090;51.512;11.332;2023-02-23T08:54:48;99077.94;;;12.38;nan
64675;BME280;51090;51.512;11.332;2023-02-23T08:57:14;99082.44;;;12.45;nan
64675;BME280;51090;51.512;11.332;2023-02-23T08:59:39;99085.47;;;12.75;nan
64675;BME280;51090;51.512;11.332;2023-02-23T09:02:08;99092.81;;;12.93;nan
64675;BME280;51090;51.512;11.332;2023-02-23T09:04:36;99095.03;;;13.02;nan
64675;BME280;51090;51.512;11.332;2023-02-23T09:07:02;99093.75;;;13.12;nan
64675;BME280;51090;51.512;11.332;2023-02-23T09:09:29;99088.00;;;13.15;nan
64675;BME280;51090;51.512;11.332;2023-02-23T09:11:55;99088.81;;;13.22;nan
64675;BME280;51090;51.512;11.332;2023-02-23T09:14:21;99088.59;;;13.30;nan
64675;BME280;51090;51.512;11.332;2023-02-23T09:16:47;99084.94;;;13.18;nan
64675;BME280;51090;51.512;11.332;2023-02-23T09:19:13;99091.72;;;13.14;nan
64675;BME280;51090;51.512;11.332;2023-02-23T09:21:39;99090.25;;;13.18;nan
64675;BME280;51090;51.512;11.332;2023-02-23T09:24:05;99102.31;;;13.20;nan
64675;BME280;51090;51.512;11.332;2023-02-23T09:26:32;99097.41;;;13.37;nan
64675;BME280;51090;51.512;11.332;2023-02-23T09:29:00;99103.28;;;13.46;nan
64675;BME280;51090;51.512;11.332;2023-02-23T09:31:26;99102.28;;;13.47;nan
64675;BME280;51090;51.512;11.332;2023-02-23T09:33:53;99105.69;;;13.61;nan
64675;BME280;51090;51.512;11.332;2023-02-23T09:36:22;99106.69;;;13.66;nan
64675;BME280;51090;51.512;11.332;2023-02-23T09:38:51;99104.97;;;13.79;nan
64675;BME280;51090;51.512;11.332;2023-02-23T09:41:41;99115.88;;;14.09;nan
64675;BME280;51090;51.512;11.332;2023-02-23T09:49:14;99131.84;;;14.41;nan
64675;BME280;51090;51.512;11.332;2023-02-23T09:51:47;99120.97;;;14.42;nan
64675;BME280;51090;51.512;11.332;2023-02-23T09:54:17;99132.13;;;14.32;nan
64675;BME280;51090;51.512;11.332;2023-02-23T09:56:46;99110.88;;;14.19;nan
64675;BME280;51090;51.512;11.332;2023-02-23T09:59:15;99123.25;;;14.38;nan
64675;BME280;51090;51.512;11.332;2023-02-23T10:01:53;99126.81;;;14.57;nan
64675;BME280;51090;51.512;11.332;2023-02-23T10:04:48;99131.22;;;14.70;nan
64675;BME280;51090;51.512;11.332;2023-02-23T10:10:46;99116.31;;;14.63;nan
64675;BME280;51090;51.512;11.332;2023-02-23T10:16:09;99114.78;;;14.73;nan
64675;BME280;51090;51.512;11.332;2023-02-23T10:18:52;99113.53;;;14.94;nan
64675;BME280;51090;51.512;11.332;2023-02-23T10:21:38;99122.25;;;15.08;nan
64675;BME280;51090;51.512;11.332;2023-02-23T10:24:24;99110.38;;;15.22;nan
64675;BME280;51090;51.512;11.332;2023-02-23T10:26:59;99114.22;;;15.27;nan
64675;BME280;51090;51.512;11.332;2023-02-23T10:29:47;99125.66;;;15.71;nan
64675;BME280;51090;51.512;11.332;2023-02-23T10:34:48;99119.25;;;16.02;nan
64675;BME280;51090;51.512;11.332;2023-02-23T10:37:17;99114.63;;;16.09;nan
64675;BME280;51090;51.512;11.332;2023-02-23T10:39:43;99119.56;;;16.36;nan
64675;BME280;51090;51.512;11.332;2023-02-23T10:42:16;99120.16;;;16.61;nan
64675;BME280;51090;51.512;11.332;2023-02-23T10:44:45;99112.97;;;16.73;nan
64675;BME280;51090;51.512;11.332;2023-02-23T10:47:16;99112.75;;;16.75;nan
64675;BME280;51090;51.512;11.332;2023-02-23T10:49:53;99092.03;;;16.94;nan
64675;BME280;51090;51.512;11.332;2023-02-23T10:52:40;99120.75;;;17.22;nan
64675;BME280;51090;51.512;11.332;2023-02-23T10:57:51;99109.69;;;17.18;nan
64675;BME280;51090;51.512;11.332;2023-02-23T11:00:30;99105.16;;;17.19;nan
64675;BME280;51090;51.512;11.332;2023-02-23T11:03:00;99113.53;;;17.63;nan
64675;BME280;51090;51.512;11.332;2023-02-23T11:08:34;99106.69;;;17.96;nan
64675;BME280;51090;51.512;11.332;2023-02-23T11:11:26;99106.88;;;18.06;nan
64675;BME280;51090;51.512;11.332;2023-02-23T11:13:55;99093.09;;;17.86;nan
64675;BME280;51090;51.512;11.332;2023-02-23T11:16:27;99100.25;;;17.97;nan
64675;BME280;51090;51.512;11.332;2023-02-23T11:18:57;99082.28;;;17.97;nan
64675;BME280;51090;51.512;11.332;2023-02-23T11:21:33;99093.13;;;18.36;nan
64675;BME280;51090;51.512;11.332;2023-02-23T11:24:31;99085.00;;;18.48;nan
64675;BME280;51090;51.512;11.332;2023-02-23T11:27:01;99082.06;;;18.33;nan
64675;BME280;51090;51.512;11.332;2023-02-23T11:29:40;99055.00;;;18.17;nan
64675;BME280;51090;51.512;11.332;2023-02-23T11:32:22;99075.63;;;18.34;nan
64675;BME280;51090;51.512;11.332;2023-02-23T11:37:47;99065.38;;;17.97;nan
64675;BME280;51090;51.512;11.332;2023-02-23T11:40:22;99077.44;;;18.28;nan
64675;BME280;51090;51.512;11.332;2023-02-23T11:43:14;99081.16;;;18.10;nan
64675;BME280;51090;51.512;11.332;2023-02-23T11:45:47;99073.44;;;17.97;nan
64675;BME280;51090;51.512;11.332;2023-02-23T11:48:59;99071.31;;;17.99;nan
64675;BME280;51090;51.512;11.332;2023-02-23T11:51:37;99061.00;;;17.91;nan
64675;BME280;51090;51.512;11.332;2023-02-23T11:54:04;99068.19;;;17.90;nan
64675;BME280;51090;51.512;11.332;2023-02-23T11:56:33;99063.19;;;17.94;nan
64675;BME280;51090;51.512;11.332;2023-02-23T11:59:05;99062.06;;;18.06;nan
64675;BME280;51090;51.512;11.332;2023-02-23T12:01:48;99065.50;;;18.19;nan
64675;BME280;51090;51.512;11.332;2023-02-23T12:04:36;99060.28;;;18.29;nan
64675;BME280;51090;51.512;11.332;2023-02-23T12:07:34;99064.97;;;18.39;nan
64675;BME280;51090;51.512;11.332;2023-02-23T12:10:38;99061.88;;;18.47;nan
64675;BME280;51090;51.512;11.332;2023-02-23T12:16:30;99054.00;;;18.40;nan
64675;BME280;51090;51.512;11.332;2023-02-23T12:19:21;99045.16;;;18.40;nan
64675;BME280;51090;51.512;11.332;2023-02-23T12:22:10;99044.97;;;18.46;nan
64675;BME280;51090;51.512;11.332;2023-02-23T12:25:04;99049.09;;;18.54;nan
64675;BME280;51090;51.512;11.332;2023-02-23T12:27:46;99039.19;;;18.38;nan
64675;BME280;51090;51.512;11.332;2023-02-23T12:30:37;99037.56;;;18.37;nan
64675;BME280;51090;51.512;11.332;2023-02-23T12:39:37;99034.75;;;18.26;nan
64675;BME280;51090;51.512;11.332;2023-02-23T12:44:57;99038.72;;;18.24;nan
64675;BME280;51090;51.512;11.332;2023-02-23T12:48:01;99020.69;;;18.19;nan
64675;BME280;51090;51.512;11.332;2023-02-23T12:50:50;99021.41;;;18.15;nan
64675;BME280;51090;51.512;11.332;2023-02-23T12:53:33;99031.22;;;18.26;nan
64675;BME280;51090;51.512;11.332;2023-02-23T13:02:24;98996.63;;;17.91;nan
64675;BME280;51090;51.512;11.332;2023-02-23T13:05:08;99028.63;;;17.97;nan
64675;BME280;51090;51.512;11.332;2023-02-23T13:10:31;99029.66;;;17.79;nan
64675;BME280;51090;51.512;11.332;2023-02-23T13:18:48;99028.03;;;17.50;nan
64675;BME280;51090;51.512;11.332;2023-02-23T13:21:32;99024.50;;;17.32;nan
64675;BME280;51090;51.512;11.332;2023-02-23T13:24:18;99020.84;;;17.10;nan
64675;BME280;51090;51.512;11.332;2023-02-23T13:26:52;99009.81;;;16.94;nan
64675;BME280;51090;51.512;11.332;2023-02-23T13:29:37;99019.84;;;16.87;nan
64675;BME280;51090;51.512;11.332;2023-02-23T13:32:10;99010.41;;;16.73;nan
64675;BME280;51090;51.512;11.332;2023-02-23T13:35:05;99013.47;;;16.65;nan
64675;BME280;51090;51.512;11.332;2023-02-23T13:37:48;99014.63;;;16.57;nan
64675;BME280;51090;51.512;11.332;2023-02-23T13:43:27;99007.66;;;16.44;nan
64675;BME280;51090;51.512;11.332;2023-02-23T13:49:34;99006.25;;;16.42;nan
64675;BME280;51090;51.512;11.332;2023-02-23T13:52:08;99012.53;;;16.47;nan
64675;BME280;51090;51.512;11.332;2023-02-23T13:54:35;99006.59;;;16.45;nan
64675;BME280;51090;51.512;11.332;2023-02-23T13:57:04;98992.19;;;16.35;nan
64675;BME280;51090;51.512;11.332;2023-02-23T13:59:43;98999.38;;;16.46;nan
64675;BME280;51090;51.512;11.332;2023-02-23T14:02:39;99005.31;;;16.60;nan
64675;BME280;51090;51.512;11.332;2023-02-23T14:05:26;98998.09;;;16.60;nan
64675;BME280;51090;51.512;11.332;2023-02-23T14:08:00;98998.91;;;16.61;nan
64675;BME280;51090;51.512;11.332;2023-02-23T14:10:37;98995.75;;;16.64;nan
64675;BME280;51090;51.512;11.332;2023-02-23T14:29:19;99008.69;;;16.20;nan
64675;BME280;51090;51.512;11.332;2023-02-23T14:34:49;98994.19;;;15.74;nan
64675;BME280;51090;51.512;11.332;2023-02-23T14:37:23;99008.28;;;15.81;nan
64675;BME280;51090;51.512;11.332;2023-02-23T14:39:52;98998.31;;;15.58;nan
64675;BME280;51090;51.512;11.332;2023-02-23T14:42:25;99002.25;;;15.55;nan
64675;BME280;51090;51.512;11.332;2023-02-23T14:44:53;99002.59;;;15.47;nan
64675;BME280;51090;51.512;11.332;2023-02-23T14:47:22;98998.84;;;15.48;nan
64675;BME280;51090;51.512;11.332;2023-02-23T14:49:58;99005.25;;;15.47;nan
64675;BME280;51090;51.512;11.332;2023-02-23T14:52:32;98993.34;;;15.31;nan
64675;BME280;51090;51.512;11.332;2023-02-23T14:57:40;99000.25;;;15.20;nan
64675;BME280;51090;51.512;11.332;2023-02-23T15:00:28;99009.00;;;15.28;nan
64675;BME280;51090;51.512;11.332;2023-02-23T15:03:08;98984.69;;;15.17;nan
64675;BME280;51090;51.512;11.332;2023-02-23T15:05:57;99003.06;;;15.25;nan
64675;BME280;51090;51.512;11.332;2023-02-23T15:08:27;98997.09;;;15.12;nan
64675;BME280;51090;51.512;11.332;2023-02-23T15:11:09;99003.63;;;15.16;nan
64675;BME280;51090;51.512;11.332;2023-02-23T15:13:39;99006.38;;;15.09;nan
64675;BME280;51090;51.512;11.332;2023-02-23T15:16:21;98988.13;;;15.06;nan
64675;BME280;51090;51.512;11.332;2023-02-23T15:19:27;98995.47;;;15.11;nan
64675;BME280;51090;51.512;11.332;2023-02-23T15:21:57;98999.13;;;14.98;nan
64675;BME280;51090;51.512;11.332;2023-02-23T15:24:47;98995.34;;;15.06;nan
64675;BME280;51090;51.512;11.332;2023-02-23T15:27:21;98996.88;;;14.95;nan
64675;BME280;51090;51.512;11.332;2023-02-23T15:29:49;99006.84;;;14.88;nan
64675;BME280;51090;51.512;11.332;2023-02-23T15:32:22;99005.78;;;14.89;nan
64675;BME280;51090;51.512;11.332;2023-02-23T15:34:53;98996.97;;;14.70;nan
64675;BME280;51090;51.512;11.332;2023-02-23T15:37:37;99011.19;;;14.82;nan
64675;BME280;51090;51.512;11.332;2023-02-23T15:40:09;99004.16;;;14.69;nan
64675;BME280;51090;51.512;11.332;2023-02-23T15:42:41;98993.47;;;14.69;nan
64675;BME280;51090;51.512;11.332;2023-02-23T15:48:04;99020.06;;;15.13;nan
64675;BME280;51090;51.512;11.332;2023-02-23T15:50:46;99017.13;;;15.21;nan
64675;BME280;51090;51.512;11.332;2023-02-23T15:56:14;99011.19;;;15.19;nan